createdAt,value
2018-02-13T00:00:09.398Z,100803.55
2018-02-13T00:02:37.828Z,100798.77
2018-02-13T00:05:06.184Z,100802.61
2018-02-13T00:07:34.582Z,100805.19
2018-02-13T00:10:02.965Z,100807.84
2018-02-13T00:12:31.293Z,100808.29
2018-02-13T00:14:59.717Z,100805.70
2018-02-13T00:17:28.045Z,100808.30
2018-02-13T00:19:56.470Z,100807.02
2018-02-13T00:22:24.845Z,100814.39
2018-02-13T00:24:53.198Z,100815.70
2018-02-13T00:27:21.602Z,100810.95
2018-02-13T00:29:49.978Z,100803.11
2018-02-13T00:32:18.309Z,100811.80
2018-02-13T00:34:46.733Z,100805.70
2018-02-13T00:37:15.069Z,100804.40
2018-02-13T00:39:43.416Z,100803.98
2018-02-13T00:42:11.765Z,100802.69
2018-02-13T00:44:40.117Z,100803.97
2018-02-13T00:47:08.448Z,100797.48
2018-02-13T00:49:36.929Z,100802.70
2018-02-13T00:52:05.234Z,100802.26
2018-02-13T00:54:33.657Z,100802.27
2018-02-13T00:57:01.982Z,100807.91
2018-02-13T00:59:30.405Z,100807.04
2018-02-13T01:01:58.729Z,100803.13
2018-02-13T01:04:27.157Z,100801.82
2018-02-13T01:06:55.481Z,100801.38
2018-02-13T01:09:23.825Z,100803.56
2018-02-13T01:11:52.152Z,100801.84
2018-02-13T01:14:20.501Z,100796.60
2018-02-13T01:16:48.833Z,100797.89
2018-02-13T01:19:17.221Z,100796.16
2018-02-13T01:21:45.551Z,100802.23
2018-02-13T01:24:13.901Z,100803.09
2018-02-13T01:26:42.246Z,100800.92
2018-02-13T01:29:10.601Z,100803.55
2018-02-13T01:31:39.005Z,100800.95
2018-02-13T01:34:07.353Z,100798.34
2018-02-13T01:36:35.685Z,100801.39
2018-02-13T01:39:04.037Z,100798.34
2018-02-13T01:41:32.369Z,100794.86
2018-02-13T01:44:00.725Z,100795.31
2018-02-13T01:46:29.062Z,100801.38
2018-02-13T01:48:57.414Z,100799.22
2018-02-13T01:51:25.741Z,100793.14
2018-02-13T01:53:54.190Z,100796.17
2018-02-13T01:56:22.518Z,100791.83
2018-02-13T01:58:50.838Z,100794.88
2018-02-13T02:01:19.182Z,100790.97
2018-02-13T02:03:47.505Z,100790.55
2018-02-13T02:06:15.848Z,100785.34
2018-02-13T02:08:44.206Z,100785.73
2018-02-13T02:11:12.522Z,100784.45
2018-02-13T02:13:40.858Z,100788.36
2018-02-13T02:16:09.202Z,100780.53
2018-02-13T02:18:37.520Z,100780.09
2018-02-13T02:21:05.892Z,100784.88
2018-02-13T02:23:34.229Z,100784.88
2018-02-13T02:26:02.577Z,100782.30
2018-02-13T02:28:30.961Z,100784.45
2018-02-13T02:30:59.314Z,100789.24
2018-02-13T02:33:27.645Z,100786.17
2018-02-13T02:35:56.102Z,100787.91
2018-02-13T02:38:24.429Z,100787.47
2018-02-13T02:40:52.781Z,100784.00
2018-02-13T02:43:21.125Z,100781.41
2018-02-13T02:45:49.474Z,100784.45
2018-02-13T02:48:17.803Z,100781.39
2018-02-13T02:50:46.258Z,100780.97
2018-02-13T02:53:14.633Z,100777.50
2018-02-13T02:55:42.981Z,100784.43
2018-02-13T02:58:11.302Z,100778.37
2018-02-13T03:00:39.657Z,100779.23
2018-02-13T03:03:08.041Z,100781.41
2018-02-13T03:05:36.390Z,100779.22
2018-02-13T03:08:04.722Z,100780.50
2018-02-13T03:10:33.170Z,100782.23
2018-02-13T03:13:01.545Z,100779.19
2018-02-13T03:15:29.902Z,100780.06
2018-02-13T03:17:58.301Z,100781.77
2018-02-13T03:20:26.657Z,100772.66
2018-02-13T03:22:54.990Z,100779.57
2018-02-13T03:25:23.341Z,100782.14
2018-02-13T03:27:51.668Z,100779.05
2018-02-13T03:30:20.089Z,100774.22
2018-02-13T03:32:48.417Z,100779.02
2018-02-13T03:35:16.837Z,100770.33
2018-02-13T03:37:45.217Z,100771.63
2018-02-13T03:40:13.597Z,100770.80
2018-02-13T03:42:41.922Z,100770.77
2018-02-13T03:45:10.273Z,100762.98
2018-02-13T03:47:38.678Z,100759.05
2018-02-13T03:50:07.105Z,100755.53
2018-02-13T03:52:35.442Z,100753.36
2018-02-13T03:55:03.861Z,100754.22
2018-02-13T03:57:32.189Z,100754.66
2018-02-13T04:00:00.622Z,100757.73
2018-02-13T04:02:28.989Z,100759.06
2018-02-13T04:04:57.320Z,100755.22
2018-02-13T04:07:25.673Z,100751.73
2018-02-13T04:09:54.021Z,100763.89
2018-02-13T04:12:22.373Z,100761.27
2018-02-13T04:14:50.774Z,100760.84
2018-02-13T04:17:19.149Z,100766.06
2018-02-13T04:19:47.478Z,100762.61
2018-02-13T04:22:15.833Z,100763.91
2018-02-13T04:24:44.160Z,100765.22
2018-02-13T04:27:12.554Z,100766.52
2018-02-13T04:29:40.913Z,100764.76
2018-02-13T04:32:09.309Z,100766.94
2018-02-13T04:34:37.690Z,100760.00
2018-02-13T04:37:06.042Z,100756.95
2018-02-13T04:39:34.441Z,100760.01
2018-02-13T04:42:02.822Z,100758.67
2018-02-13T04:44:31.197Z,100755.63
2018-02-13T04:46:59.603Z,100756.52
2018-02-13T04:49:27.957Z,100760.89
2018-02-13T04:51:56.328Z,100755.66
2018-02-13T04:54:24.664Z,100750.88
2018-02-13T04:56:53.013Z,100749.56
2018-02-13T04:59:21.361Z,100750.87
2018-02-13T05:01:49.738Z,100743.92
2018-02-13T05:04:18.117Z,100744.81
2018-02-13T05:06:46.465Z,100745.69
2018-02-13T05:09:14.872Z,100745.25
2018-02-13T05:11:43.277Z,100748.74
2018-02-13T05:14:11.610Z,100743.51
2018-02-13T05:16:39.965Z,100751.78
2018-02-13T05:19:08.381Z,100744.81
2018-02-13T05:21:36.762Z,100743.97
2018-02-13T05:24:05.141Z,100743.53
2018-02-13T05:26:33.509Z,100743.95
2018-02-13T05:29:01.905Z,100748.30
2018-02-13T05:31:30.201Z,100747.00
2018-02-13T05:33:58.550Z,100741.36
2018-02-13T05:36:26.921Z,100739.65
2018-02-13T05:38:55.252Z,100734.42
2018-02-13T05:41:23.609Z,100737.00
2018-02-13T05:43:51.937Z,100733.53
2018-02-13T05:46:20.328Z,100740.94
2018-02-13T05:48:48.710Z,100736.17
2018-02-13T05:51:17.754Z,100739.20
2018-02-13T05:53:46.082Z,100732.67
2018-02-13T05:56:14.434Z,100736.11
2018-02-13T05:58:42.829Z,100735.25
2018-02-13T06:01:11.215Z,100732.21
2018-02-13T06:03:39.564Z,100730.94
2018-02-13T06:06:07.969Z,100731.77
2018-02-13T06:08:36.324Z,100723.95
2018-02-13T06:11:04.725Z,100723.52
2018-02-13T06:13:33.101Z,100729.16
2018-02-13T06:16:01.486Z,100726.98
2018-02-13T06:18:29.842Z,100730.02
2018-02-13T06:20:58.274Z,100728.28
2018-02-13T06:23:26.613Z,100728.28
2018-02-13T06:25:54.989Z,100731.36
2018-02-13T06:28:23.446Z,100733.52
2018-02-13T06:30:51.850Z,100733.08
2018-02-13T06:33:20.201Z,100736.14
2018-02-13T06:35:48.529Z,100729.63
2018-02-13T06:38:16.976Z,100727.45
2018-02-13T06:40:45.310Z,100729.20
2018-02-13T06:43:13.662Z,100726.63
2018-02-13T06:45:41.984Z,100732.72
2018-02-13T06:48:10.334Z,100730.54
2018-02-13T06:50:38.674Z,100728.83
2018-02-13T06:53:07.013Z,100738.36
2018-02-13T06:55:35.342Z,100731.84
2018-02-13T06:58:03.685Z,100725.35
2018-02-13T07:00:32.014Z,100729.69
2018-02-13T07:03:00.358Z,100728.84
2018-02-13T07:05:28.704Z,100740.54
2018-02-13T07:07:57.020Z,100741.42
2018-02-13T07:10:25.340Z,100741.00
2018-02-13T07:12:53.689Z,100744.02
2018-02-13T07:15:22.010Z,100733.17
2018-02-13T07:17:50.349Z,100750.13
2018-02-13T07:20:18.665Z,100750.54
2018-02-13T07:22:47.010Z,100746.63
2018-02-13T07:25:19.061Z,100749.24
2018-02-13T07:27:47.618Z,100748.78
2018-02-13T07:30:21.456Z,100755.33
2018-02-13T07:33:00.885Z,100751.39
2018-02-13T07:35:36.236Z,100758.79
2018-02-13T07:38:04.565Z,100767.04
2018-02-13T07:40:32.913Z,100758.81
2018-02-13T07:43:01.261Z,100755.77
2018-02-13T07:45:29.581Z,100753.53
2018-02-13T07:47:57.924Z,100755.27
2018-02-13T07:50:26.244Z,100753.95
2018-02-13T07:52:54.585Z,100750.01
2018-02-13T07:55:22.914Z,100757.83
2018-02-13T07:57:51.258Z,100755.20
2018-02-13T08:00:19.577Z,100750.86
2018-02-13T08:02:47.918Z,100752.56
2018-02-13T08:05:16.245Z,100744.31
2018-02-13T08:07:44.657Z,100742.56
2018-02-13T08:10:12.937Z,100749.95
2018-02-13T08:12:41.302Z,100745.17
2018-02-13T08:15:09.636Z,100742.13
2018-02-13T08:17:38.464Z,100729.53
2018-02-13T08:20:06.773Z,100733.39
2018-02-13T08:22:35.127Z,100731.17
2018-02-13T08:25:03.449Z,100731.61
2018-02-13T08:27:31.769Z,100730.73
2018-02-13T08:30:00.119Z,100732.01
2018-02-13T08:32:28.434Z,100734.16
2018-02-13T08:34:56.821Z,100730.23
2018-02-13T08:37:25.229Z,100731.52
2018-02-13T08:39:53.573Z,100732.80
2018-02-13T08:42:21.893Z,100721.00
2018-02-13T08:44:50.237Z,100723.16
2018-02-13T08:47:18.566Z,100726.23
2018-02-13T08:49:46.905Z,100716.66
2018-02-13T08:52:15.225Z,100722.94
2018-02-13T08:54:43.588Z,100733.23
2018-02-13T08:57:11.893Z,100728.08
2018-02-13T08:59:40.237Z,100727.69
2018-02-13T09:02:08.558Z,100737.80
2018-02-13T09:04:36.904Z,100728.60
2018-02-13T09:07:05.226Z,100731.20
2018-02-13T09:09:33.565Z,100725.03
2018-02-13T09:12:01.889Z,100730.16
2018-02-13T09:14:30.249Z,100735.42
2018-02-13T09:16:58.574Z,100728.37
2018-02-13T09:19:26.998Z,100724.38
2018-02-13T09:21:55.325Z,100726.98
2018-02-13T09:24:23.755Z,100724.73
2018-02-13T09:26:52.083Z,100725.17
2018-02-13T09:29:20.421Z,100729.48
2018-02-13T09:31:49.126Z,100715.55
2018-02-13T09:34:17.477Z,100712.81
2018-02-13T09:36:45.797Z,100714.47
2018-02-13T09:39:14.145Z,100712.72
2018-02-13T09:41:42.470Z,100711.84
2018-02-13T09:44:10.813Z,100714.77
2018-02-13T09:46:39.146Z,100711.28
2018-02-13T09:49:07.489Z,100712.16
2018-02-13T09:51:35.902Z,100709.97
2018-02-13T09:54:04.241Z,100716.48
2018-02-13T09:56:32.566Z,100717.29
2018-02-13T09:59:00.936Z,100715.55
2018-02-13T10:01:29.309Z,100719.80
2018-02-13T10:03:57.685Z,100725.01
2018-02-13T10:06:26.010Z,100720.17
2018-02-13T10:08:54.446Z,100719.73
2018-02-13T10:11:23.533Z,100719.23
2018-02-13T10:13:51.877Z,100715.66
2018-02-13T10:16:20.201Z,100716.49
2018-02-13T10:18:48.665Z,100720.86
2018-02-13T10:21:17.041Z,100711.69
2018-02-13T10:23:45.381Z,100713.31
2018-02-13T10:26:13.709Z,100707.13
2018-02-13T10:28:42.053Z,100712.67
2018-02-13T10:31:10.373Z,100701.98
2018-02-13T10:33:38.721Z,100703.20
2018-02-13T10:36:08.005Z,100700.10
2018-02-13T10:38:36.349Z,100700.80
2018-02-13T10:41:05.481Z,100695.88
2018-02-13T10:43:33.811Z,100692.72
2018-02-13T10:46:03.146Z,100690.59
2018-02-13T10:48:31.465Z,100684.47
2018-02-13T10:50:59.823Z,100689.72
2018-02-13T10:53:28.130Z,100685.48
2018-02-13T10:55:56.528Z,100684.52
2018-02-13T10:58:24.825Z,100680.64
2018-02-13T11:00:58.717Z,100680.10
2018-02-13T11:03:27.038Z,100683.16
2018-02-13T11:05:55.382Z,100679.08
2018-02-13T11:08:23.701Z,100681.31
2018-02-13T11:10:52.047Z,100679.41
2018-02-13T11:13:20.386Z,100681.16
2018-02-13T11:15:49.725Z,100681.12
2018-02-13T11:18:18.041Z,100673.56
2018-02-13T11:20:46.385Z,100675.33
2018-02-13T11:23:14.710Z,100674.34
2018-02-13T11:25:43.090Z,100665.59
2018-02-13T11:28:11.376Z,100666.19
2018-02-13T11:30:39.721Z,100667.00
2018-02-13T11:33:08.041Z,100657.45
2018-02-13T11:35:36.381Z,100658.22
2018-02-13T11:38:04.701Z,100655.59
2018-02-13T11:40:33.046Z,100654.31
2018-02-13T11:43:01.370Z,100658.87
2018-02-13T11:45:29.709Z,100658.04
2018-02-13T11:47:58.030Z,100649.66
2018-02-13T11:50:26.374Z,100651.31
2018-02-13T11:52:54.693Z,100650.48
2018-02-13T11:55:23.037Z,100646.47
2018-02-13T11:57:51.361Z,100648.50
2018-02-13T12:00:19.706Z,100642.38
2018-02-13T12:02:48.027Z,100646.23
2018-02-13T12:05:16.375Z,100651.44
2018-02-13T12:07:44.741Z,100650.12
2018-02-13T12:10:13.114Z,100652.62
2018-02-13T12:12:41.433Z,100654.31
2018-02-13T12:15:09.783Z,100650.69
2018-02-13T12:17:38.146Z,100650.63
2018-02-13T12:20:06.485Z,100652.75
2018-02-13T12:22:34.985Z,100642.98
2018-02-13T12:25:03.312Z,100643.43
2018-02-13T12:27:31.706Z,100643.66
2018-02-13T12:30:00.028Z,100643.61
2018-02-13T12:32:28.347Z,100640.98
2018-02-13T12:34:56.697Z,100636.45
2018-02-13T12:37:25.018Z,100632.94
2018-02-13T12:39:53.336Z,100630.45
2018-02-13T12:42:21.677Z,100635.06
2018-02-13T12:44:49.993Z,100634.14
2018-02-13T12:47:18.341Z,100627.12
2018-02-13T12:49:46.657Z,100626.53
2018-02-13T12:52:14.999Z,100627.55
2018-02-13T12:54:43.321Z,100620.34
2018-02-13T12:57:12.665Z,100622.55
2018-02-13T12:59:40.994Z,100624.64
2018-02-13T13:02:09.346Z,100621.16
2018-02-13T13:04:37.670Z,100617.78
2018-02-13T13:07:06.027Z,100617.47
2018-02-13T13:09:34.385Z,100605.89
2018-02-13T13:12:02.738Z,100604.77
2018-02-13T13:14:31.053Z,100605.38
2018-02-13T13:16:59.399Z,100595.78
2018-02-13T13:19:27.726Z,100601.44
2018-02-13T13:21:56.066Z,100593.52
2018-02-13T13:24:24.385Z,100591.55
2018-02-13T13:26:52.740Z,100589.50
2018-02-13T13:29:21.082Z,100583.51
2018-02-13T13:31:49.439Z,100579.23
2018-02-13T13:34:17.761Z,100581.62
2018-02-13T13:36:46.105Z,100573.01
2018-02-13T13:39:14.435Z,100572.56
2018-02-13T13:41:42.770Z,100568.10
2018-02-13T13:44:11.106Z,100566.44
2018-02-13T13:46:39.458Z,100558.89
2018-02-13T13:49:08.557Z,100557.51
2018-02-13T13:51:37.304Z,100554.59
2018-02-13T13:54:05.627Z,100552.69
2018-02-13T13:56:33.979Z,100547.22
2018-02-13T13:59:02.303Z,100546.41
2018-02-13T14:01:30.653Z,100545.89
2018-02-13T14:03:58.978Z,100549.70
2018-02-13T14:06:27.310Z,100547.44
2018-02-13T14:08:55.669Z,100542.13
2018-02-13T14:11:23.989Z,100544.27
2018-02-13T14:13:52.334Z,100542.41
2018-02-13T14:16:20.657Z,100546.58
2018-02-13T14:18:49.022Z,100543.36
2018-02-13T14:21:17.426Z,100543.48
2018-02-13T14:23:45.794Z,100542.95
2018-02-13T14:26:14.129Z,100545.72
2018-02-13T14:28:42.658Z,100551.14
2018-02-13T14:31:11.036Z,100546.38
2018-02-13T14:33:39.531Z,100547.44
2018-02-13T14:36:07.895Z,100543.57
2018-02-13T14:38:36.285Z,100541.00
2018-02-13T14:41:04.607Z,100542.31
2018-02-13T14:43:32.950Z,100539.59
2018-02-13T14:46:01.343Z,100544.74
2018-02-13T14:48:29.685Z,100547.48
2018-02-13T14:50:58.098Z,100544.66
2018-02-13T14:53:26.482Z,100548.40
2018-02-13T14:55:54.966Z,100540.42
2018-02-13T14:58:23.321Z,100547.86
2018-02-13T15:00:51.688Z,100544.38
2018-02-13T15:03:20.027Z,100544.60
2018-02-13T15:05:49.311Z,100562.70
2018-02-13T15:08:17.709Z,100555.40
2018-02-13T15:10:45.972Z,100555.41
2018-02-13T15:13:14.305Z,100557.52
2018-02-13T15:15:42.633Z,100560.46
2018-02-13T15:18:12.954Z,100557.67
2018-02-13T15:20:41.280Z,100556.20
2018-02-13T15:23:09.617Z,100561.02
2018-02-13T15:25:38.031Z,100563.69
2018-02-13T15:28:06.381Z,100564.66
2018-02-13T15:30:35.342Z,100564.28
2018-02-13T15:33:03.679Z,100561.20
2018-02-13T15:35:32.001Z,100564.87
2018-02-13T15:38:00.354Z,100562.80
2018-02-13T15:40:28.671Z,100565.05
2018-02-13T15:42:57.086Z,100569.86
2018-02-13T15:45:25.416Z,100569.23
2018-02-13T15:47:53.763Z,100572.87
2018-02-13T15:50:23.037Z,100574.07
2018-02-13T15:52:51.405Z,100576.52
2018-02-13T15:55:19.749Z,100577.06
2018-02-13T15:57:48.113Z,100580.45
2018-02-13T16:00:16.422Z,100577.95
2018-02-13T16:02:45.147Z,100574.18
2018-02-13T16:05:15.957Z,100573.88
2018-02-13T16:07:44.313Z,100572.67
2018-02-13T16:10:12.648Z,100573.23
2018-02-13T16:12:41.049Z,100574.55
2018-02-13T16:15:09.602Z,100581.48
2018-02-13T16:17:37.929Z,100581.93
2018-02-13T16:20:06.281Z,100589.55
2018-02-13T16:22:34.605Z,100593.59
2018-02-13T16:25:02.972Z,100592.00
2018-02-13T16:27:31.308Z,100599.48
2018-02-13T16:29:59.654Z,100599.33
2018-02-13T16:32:27.981Z,100604.62
2018-02-13T16:34:56.350Z,100601.30
2018-02-13T16:37:24.673Z,100603.48
2018-02-13T16:39:53.116Z,100608.78
2018-02-13T16:42:21.446Z,100600.30
2018-02-13T16:44:50.014Z,100601.34
2018-02-13T16:47:19.413Z,100597.80
2018-02-13T16:49:48.098Z,100608.08
2018-02-13T16:52:16.977Z,100607.63
2018-02-13T16:54:45.350Z,100606.52
2018-02-13T16:57:13.734Z,100612.78
2018-02-13T16:59:42.162Z,100606.52
2018-02-13T17:02:10.508Z,100611.38
2018-02-13T17:04:39.033Z,100613.66
2018-02-13T17:07:07.534Z,100611.08
2018-02-13T17:09:36.761Z,100608.84
2018-02-13T17:12:05.090Z,100610.35
2018-02-13T17:14:33.453Z,100608.66
2018-02-13T17:17:01.802Z,100603.32
2018-02-13T17:19:30.249Z,100604.15
2018-02-13T17:21:58.710Z,100608.76
2018-02-13T17:24:27.081Z,100609.33
2018-02-13T17:26:55.436Z,100610.73
2018-02-13T17:29:23.757Z,100613.75
2018-02-13T17:31:52.277Z,100608.56
2018-02-13T17:34:20.627Z,100612.05
2018-02-13T17:36:49.917Z,100621.19
2018-02-13T17:39:18.262Z,100618.17
2018-02-13T17:41:46.589Z,100622.00
2018-02-13T17:44:14.937Z,100616.75
2018-02-13T17:46:43.322Z,100618.14
2018-02-13T17:49:11.719Z,100620.38
2018-02-13T17:51:41.990Z,100622.78
2018-02-13T17:54:11.757Z,100624.80
2018-02-13T17:56:40.086Z,100627.03
2018-02-13T17:59:08.476Z,100623.44
2018-02-13T18:01:36.996Z,100619.98
2018-02-13T18:04:05.341Z,100621.30
2018-02-13T18:06:33.678Z,100620.09
2018-02-13T18:09:02.033Z,100621.58
2018-02-13T18:11:30.389Z,100624.53
2018-02-13T18:13:58.729Z,100620.25
2018-02-13T18:16:27.059Z,100624.69
2018-02-13T18:18:55.421Z,100620.61
2018-02-13T18:21:23.752Z,100623.71
2018-02-13T18:23:52.081Z,100625.78
2018-02-13T18:26:20.436Z,100629.14
2018-02-13T18:28:48.766Z,100623.46
2018-02-13T18:31:17.197Z,100631.02
2018-02-13T18:33:46.298Z,100628.53
2018-02-13T18:36:14.650Z,100637.97
2018-02-13T18:38:42.978Z,100633.77
2018-02-13T18:41:11.425Z,100634.44
2018-02-13T18:43:39.800Z,100639.55
2018-02-13T18:46:08.149Z,100638.13
2018-02-13T18:48:36.562Z,100638.05
2018-02-13T18:51:04.907Z,100641.94
2018-02-13T18:53:33.229Z,100638.13
2018-02-13T18:56:01.587Z,100640.11
2018-02-13T18:58:29.966Z,100640.43
2018-02-13T19:00:58.318Z,100646.91
2018-02-13T19:03:26.645Z,100637.27
2018-02-13T19:05:55.892Z,100641.89
2018-02-13T19:08:24.222Z,100645.89
2018-02-13T19:10:52.673Z,100652.73
2018-02-13T19:13:20.995Z,100649.78
2018-02-13T19:15:50.324Z,100659.82
2018-02-13T19:18:18.658Z,100657.74
2018-02-13T19:20:47.017Z,100664.58
2018-02-13T19:23:15.362Z,100659.31
2018-02-13T19:25:43.733Z,100659.75
2018-02-13T19:28:12.289Z,100660.11
2018-02-13T19:30:40.620Z,100661.42
2018-02-13T19:33:08.998Z,100667.56
2018-02-13T19:35:37.365Z,100665.89
2018-02-13T19:38:05.702Z,100665.93
2018-02-13T19:40:34.070Z,100668.18
2018-02-13T19:43:02.394Z,100663.78
2018-02-13T19:45:30.748Z,100664.29
2018-02-13T19:47:59.078Z,100663.81
2018-02-13T19:50:27.427Z,100663.38
2018-02-13T19:52:55.759Z,100661.64
2018-02-13T19:55:24.190Z,100659.42
2018-02-13T19:57:52.567Z,100671.34
2018-02-13T20:00:20.918Z,100671.73
2018-02-13T20:02:49.266Z,100671.77
2018-02-13T20:05:17.701Z,100665.27
2018-02-13T20:07:46.181Z,100670.90
2018-02-13T20:10:14.549Z,100672.68
2018-02-13T20:12:42.879Z,100671.81
2018-02-13T20:15:11.243Z,100673.21
2018-02-13T20:17:39.609Z,100672.34
2018-02-13T20:20:07.949Z,100675.80
2018-02-13T20:22:36.294Z,100679.25
2018-02-13T20:25:04.642Z,100680.63
2018-02-13T20:27:32.988Z,100685.45
2018-02-13T20:30:01.317Z,100686.27
2018-02-13T20:32:30.032Z,100684.12
2018-02-13T20:34:58.358Z,100692.41
2018-02-13T20:37:26.810Z,100688.05
2018-02-13T20:39:55.126Z,100693.27
2018-02-13T20:42:23.554Z,100695.52
2018-02-13T20:44:51.886Z,100696.83
2018-02-13T20:47:20.226Z,100699.61
2018-02-13T20:49:48.546Z,100700.97
2018-02-13T20:52:16.889Z,100699.80
2018-02-13T20:54:45.213Z,100697.54
2018-02-13T20:57:13.614Z,100697.92
2018-02-13T20:59:41.957Z,100698.84
2018-02-13T21:02:10.322Z,100704.54
2018-02-13T21:04:38.691Z,100703.74
2018-02-13T21:07:07.008Z,100707.13
2018-02-13T21:09:35.403Z,100712.36
2018-02-13T21:12:03.749Z,100711.00
2018-02-13T21:14:32.074Z,100712.84
2018-02-13T21:17:00.421Z,100712.36
2018-02-13T21:19:28.761Z,100714.13
2018-02-13T21:21:57.190Z,100711.95
2018-02-13T21:24:25.558Z,100711.09
2018-02-13T21:26:53.897Z,100724.11
2018-02-13T21:29:22.221Z,100720.59
2018-02-13T21:31:50.571Z,100722.77
2018-02-13T21:34:18.894Z,100724.08
2018-02-13T21:36:47.342Z,100723.22
2018-02-13T21:39:15.661Z,100725.39
2018-02-13T21:41:44.097Z,100730.69
2018-02-13T21:44:12.428Z,100727.64
2018-02-13T21:46:41.754Z,100723.70
2018-02-13T21:49:10.154Z,100724.16
2018-02-13T21:51:38.498Z,100729.84
2018-02-13T21:54:06.909Z,100728.56
2018-02-13T21:56:36.214Z,100725.53
2018-02-13T21:59:04.582Z,100726.47
2018-02-13T22:01:32.931Z,100723.85
2018-02-13T22:04:01.620Z,100723.72
2018-02-13T22:06:30.021Z,100719.91
2018-02-13T22:08:58.347Z,100725.64
2018-02-13T22:11:26.685Z,100718.31
2018-02-13T22:13:55.053Z,100717.55
2018-02-13T22:16:23.400Z,100723.84
2018-02-13T22:18:51.805Z,100722.48
2018-02-13T22:21:20.150Z,100721.61
2018-02-13T22:23:48.553Z,100719.00
2018-02-13T22:26:16.897Z,100720.39
2018-02-13T22:28:45.217Z,100715.68
2018-02-13T22:31:13.541Z,100721.78
2018-02-13T22:33:41.965Z,100722.19
2018-02-13T22:36:10.399Z,100727.88
2018-02-13T22:38:38.726Z,100728.28
2018-02-13T22:41:07.041Z,100730.02
2018-02-13T22:43:35.390Z,100734.39
2018-02-13T22:46:03.756Z,100728.34
2018-02-13T22:48:32.129Z,100735.72
2018-02-13T22:51:00.505Z,100737.51
2018-02-13T22:53:28.841Z,100734.44
2018-02-13T22:55:57.262Z,100728.39
2018-02-13T22:58:25.609Z,100731.01
2018-02-13T23:00:53.934Z,100737.14
2018-02-13T23:03:22.341Z,100742.37
2018-02-13T23:05:50.668Z,100746.27
2018-02-13T23:08:19.009Z,100742.80
2018-02-13T23:10:47.317Z,100744.59
2018-02-13T23:13:15.658Z,100748.94
2018-02-13T23:15:44.070Z,100749.80
2018-02-13T23:18:12.453Z,100755.87
2018-02-13T23:20:40.778Z,100757.62
2018-02-13T23:23:09.115Z,100758.07
2018-02-13T23:25:37.477Z,100755.03
2018-02-13T23:28:05.822Z,100748.13
2018-02-13T23:30:34.142Z,100751.62
2018-02-13T23:33:02.510Z,100751.66
2018-02-13T23:35:30.886Z,100759.09
2018-02-13T23:37:59.232Z,100756.05
2018-02-13T23:40:27.557Z,100753.88
2018-02-13T23:42:55.896Z,100760.38
2018-02-13T23:45:24.213Z,100756.45
2018-02-13T23:47:52.565Z,100757.34
2018-02-13T23:50:20.885Z,100764.30
2018-02-13T23:52:49.313Z,100762.13
2018-02-13T23:55:17.633Z,100769.94
2018-02-13T23:57:45.973Z,100769.98
